Saline City, Missouri
Current Conditions -  °F | °C
As of 12:15 PM on Friday 21 Nov 2014 (Local Time) from KMHL Reporting Station
Overcast Overcast  
Wind Chill: 32°   Ceiling: 1800
Heat Index: 39°   Visibility: 10mi
Dew Point: 27°   Wind: 12mph
Humidity: 61%   Direction: 130°SE
Pressure: 30.27"   Gusts: NA
Location:  39.2023°N, 93.0277°W
Report Text: KMHL 211815Z AUTO 13010KT 10SM BKN018 OVC024 04/M03 A3027 RMK AO2
Loading
Personal Weather Stations






























Interactive Weather Map New forecast layout! Learn more

10-Day Weather Forecast

Advertisements
Track Severe Weather on mobile